Time;durP1;ratioP1;P1;durP2;ratioP2;P2;SDS_P1;SDS_P2;PMS_P1;PMS_P2;Temp;Humidity;BMP_temperature;BMP_pressure;BME280_temperature;BME280_humidity;BME280_pressure;Samples;Min_cycle;Max_cycle;Signal;HPM_P1;HPM_P2
2021/04/11 00:00:41;;;;;;;52.13;37.50;;;8.40;95.40;;;;;;2071638;28;20041;-74
2021/04/11 00:01:42;;;;;;;48.08;36.03;;;8.40;95.40;;;;;;2071674;28;20058;-73
2021/04/11 00:02:43;;;;;;;53.60;38.28;;;8.40;95.40;;;;;;2071798;28;20401;-73
2021/04/11 00:03:43;;;;;;;50.53;37.45;;;8.40;95.30;;;;;;2071670;28;20030;-72
2021/04/11 00:04:44;;;;;;;48.78;36.17;;;8.40;95.30;;;;;;2072223;28;20029;-72
2021/04/11 00:05:45;;;;;;;49.42;36.30;;;8.40;95.30;;;;;;2063811;28;20688;-71
2021/04/11 00:06:46;;;;;;;48.63;36.13;;;8.30;95.30;;;;;;2064194;28;20125;-70
2021/04/11 00:07:47;;;;;;;49.90;36.67;;;8.30;95.30;;;;;;2064106;28;20026;-70
2021/04/11 00:08:50;;;;;;;48.92;35.75;;;8.40;95.40;;;;;;2072461;28;20030;-71
2021/04/11 00:09:51;;;;;;;48.38;36.78;;;8.40;95.40;;;;;;2073034;28;20033;-72
2021/04/11 00:10:55;;;;;;;45.42;35.20;;;8.30;95.40;;;;;;2072874;28;20026;-69
2021/04/11 00:11:56;;;;;;;44.22;34.63;;;8.30;95.40;;;;;;2072137;28;20025;-71
2021/04/11 00:12:57;;;;;;;46.33;35.10;;;8.40;95.40;;;;;;2072246;28;20048;-70
2021/04/11 00:13:58;;;;;;;42.55;32.83;;;8.40;95.50;;;;;;2072807;28;20114;-73
2021/04/11 00:14:59;;;;;;;43.60;32.58;;;8.40;95.50;;;;;;2072119;28;20584;-71
2021/04/11 00:16:01;;;;;;;43.58;33.95;;;8.40;95.40;;;;;;2062880;28;20050;-72
2021/04/11 00:17:02;;;;;;;44.70;34.08;;;8.40;95.40;;;;;;2063466;28;20117;-73
2021/04/11 00:18:03;;;;;;;41.35;33.10;;;8.40;95.30;;;;;;2063584;28;20033;-74
2021/04/11 00:19:03;;;;;;;40.72;31.85;;;8.40;95.20;;;;;;2071443;28;20038;-72
2021/04/11 00:20:08;;;;;;;40.28;31.95;;;8.50;95.20;;;;;;2071676;28;20030;-74
2021/04/11 00:21:10;;;;;;;46.70;35.00;;;8.50;95.10;;;;;;2080419;28;20449;-72
2021/04/11 00:22:10;;;;;;;46.03;34.88;;;8.50;95.10;;;;;;2080500;28;20040;-71
2021/04/11 00:23:12;;;;;;;44.83;34.47;;;8.50;95.00;;;;;;2080257;28;20033;-70
2021/04/11 00:24:13;;;;;;;45.15;33.95;;;8.50;95.00;;;;;;2081443;28;20080;-72
2021/04/11 00:25:18;;;;;;;44.45;33.78;;;8.50;95.00;;;;;;2073610;28;20029;-70
2021/04/11 00:26:18;;;;;;;43.22;32.80;;;8.50;95.00;;;;;;2072516;28;20029;-72
2021/04/11 00:27:19;;;;;;;48.22;35.45;;;8.50;95.00;;;;;;2073288;28;20045;-72
2021/04/11 00:28:20;;;;;;;41.83;32.75;;;8.50;94.90;;;;;;2081218;28;20037;-72
2021/04/11 00:29:21;;;;;;;44.53;33.47;;;8.50;95.00;;;;;;2081787;28;20079;-71
2021/04/11 00:30:22;;;;;;;42.30;31.92;;;8.50;94.90;;;;;;2081513;28;20496;-72
2021/04/11 00:31:22;;;;;;;42.85;32.03;;;8.50;94.90;;;;;;2081193;28;20546;-72
2021/04/11 00:32:23;;;;;;;39.30;29.98;;;8.50;94.80;;;;;;2081187;28;20030;-72
2021/04/11 00:33:29;;;;;;;39.03;28.73;;;8.60;94.80;;;;;;2081239;28;20623;-72
2021/04/11 00:34:29;;;;;;;35.88;26.95;;;8.60;94.60;;;;;;2081765;28;20026;-72
2021/04/11 00:35:30;;;;;;;36.15;27.15;;;8.60;94.40;;;;;;2081325;28;20539;-70
2021/04/11 00:36:31;;;;;;;33.97;25.80;;;8.70;94.30;;;;;;2073637;28;20792;-70
2021/04/11 00:37:32;;;;;;;34.70;26.08;;;8.70;94.20;;;;;;2074477;28;20029;-72
2021/04/11 00:38:33;;;;;;;32.75;24.30;;;8.70;93.90;;;;;;2073621;28;20026;-73
2021/04/11 00:39:34;;;;;;;31.33;23.58;;;8.80;93.80;;;;;;2073213;28;20030;-73
2021/04/11 00:40:38;;;;;;;30.38;23.10;;;8.80;93.60;;;;;;2072942;28;20112;-73
2021/04/11 00:41:45;;;;;;;30.20;21.75;;;8.80;93.50;;;;;;2072981;28;20054;-73
2021/04/11 00:42:51;;;;;;;28.02;20.63;;;8.90;93.40;;;;;;2073199;28;20785;-73
2021/04/11 00:43:52;;;;;;;26.15;20.00;;;8.90;93.30;;;;;;2073672;28;20033;-72
2021/04/11 00:45:13;;;;;;;25.27;19.85;;;8.90;93.20;;;;;;2073921;28;20034;-72
2021/04/11 00:46:44;;;;;;;26.13;19.55;;;9.00;93.10;;;;;;2073868;28;20010;-71
2021/04/11 00:47:45;;;;;;;28.52;21.08;;;9.00;92.80;;;;;;2062222;28;20120;-72
2021/04/11 00:48:46;;;;;;;29.15;20.73;;;9.00;92.70;;;;;;2073072;28;20026;-72
2021/04/11 00:49:48;;;;;;;30.98;22.42;;;9.10;92.50;;;;;;2065186;28;20027;-72
2021/04/11 00:51:07;;;;;;;30.45;22.25;;;9.10;92.20;;;;;;2073109;28;20026;-72
2021/04/11 00:52:10;;;;;;;29.95;21.38;;;9.10;92.00;;;;;;2073797;28;20073;-72
2021/04/11 00:53:11;;;;;;;27.85;20.63;;;9.20;92.00;;;;;;2073982;28;20472;-71
2021/04/11 00:54:12;;;;;;;27.00;19.25;;;9.20;92.00;;;;;;2081390;28;20029;-73
2021/04/11 00:55:14;;;;;;;26.63;19.05;;;9.20;91.90;;;;;;2073249;28;20108;-71
2021/04/11 00:56:17;;;;;;;24.48;18.15;;;9.20;91.80;;;;;;2065532;28;20026;-71
2021/04/11 00:57:18;;;;;;;23.42;18.02;;;9.20;91.70;;;;;;2073208;28;20076;-73
2021/04/11 00:58:22;;;;;;;22.23;16.95;;;9.20;91.60;;;;;;2072899;28;20489;-72
2021/04/11 00:59:23;;;;;;;23.95;16.70;;;9.30;91.60;;;;;;2073004;28;20056;-71
2021/04/11 01:00:32;;;;;;;23.02;17.30;;;9.30;91.50;;;;;;2073643;28;20030;-72
2021/04/11 01:01:34;;;;;;;21.10;15.88;;;9.30;91.40;;;;;;2073623;28;20048;-73
2021/04/11 01:02:38;;;;;;;23.00;16.80;;;9.30;91.40;;;;;;2073910;28;20026;-72
2021/04/11 01:03:39;;;;;;;24.65;17.52;;;9.40;91.30;;;;;;2081130;28;20497;-73
2021/04/11 01:04:40;;;;;;;24.17;17.27;;;9.40;91.10;;;;;;2081012;28;20520;-73
2021/04/11 01:05:42;;;;;;;21.08;16.02;;;9.50;91.10;;;;;;2072165;28;20033;-74
2021/04/11 01:06:51;;;;;;;23.92;16.05;;;9.40;90.90;;;;;;2073556;28;20037;-73
2021/04/11 01:07:52;;;;;;;21.42;16.02;;;9.50;90.80;;;;;;2080121;28;20033;-73
2021/04/11 01:08:54;;;;;;;20.30;15.27;;;9.50;90.60;;;;;;2073549;28;20080;-73
2021/04/11 01:09:55;;;;;;;24.45;16.00;;;9.50;90.60;;;;;;2072893;28;20277;-72
2021/04/11 01:11:05;;;;;;;21.23;15.07;;;9.50;90.60;;;;;;2064954;28;20031;-72
2021/04/11 01:12:09;;;;;;;21.20;14.95;;;9.60;90.40;;;;;;2066185;28;20014;-74
2021/04/11 01:13:11;;;;;;;19.80;14.32;;;9.60;90.20;;;;;;2065685;28;20115;-73
2021/04/11 01:14:14;;;;;;;22.98;14.60;;;9.60;90.10;;;;;;2065255;28;20069;-73
2021/04/11 01:15:21;;;;;;;19.35;13.70;;;9.70;90.00;;;;;;2073780;28;20508;-73
2021/04/11 01:16:21;;;;;;;18.20;13.30;;;9.70;89.90;;;;;;2072893;28;20165;-72
2021/04/11 01:17:26;;;;;;;20.92;14.38;;;9.70;90.20;;;;;;2065419;28;20033;-72
2021/04/11 01:18:31;;;;;;;20.52;14.57;;;9.70;89.40;;;;;;2065662;28;20046;-72
2021/04/11 01:19:36;;;;;;;20.58;13.80;;;9.80;89.20;;;;;;2073053;28;20026;-73
2021/04/11 01:20:37;;;;;;;17.73;13.13;;;9.70;89.10;;;;;;2073700;28;20388;-73
2021/04/11 01:22:07;;;;;;;22.02;14.05;;;9.80;89.00;;;;;;2065202;28;20030;-73
2021/04/11 01:23:16;;;;;;;19.98;14.68;;;9.80;88.90;;;;;;2069510;28;20116;-72
2021/04/11 01:24:34;;;;;;;24.30;14.90;;;9.80;88.80;;;;;;2072980;28;20018;-73
2021/04/11 01:25:37;;;;;;;19.83;14.30;;;9.90;88.20;;;;;;2067089;28;20576;-73
2021/04/11 01:26:40;;;;;;;20.58;14.05;;;9.90;88.20;;;;;;2072291;28;20026;-73
2021/04/11 01:27:41;;;;;;;20.38;14.43;;;9.90;87.90;;;;;;2080891;28;20032;-73
2021/04/11 01:28:44;;;;;;;21.05;13.93;;;9.90;87.80;;;;;;2081073;28;20029;-73
2021/04/11 01:29:47;;;;;;;25.00;15.23;;;9.90;87.70;;;;;;2081070;28;20539;-72
2021/04/11 01:30:55;;;;;;;18.70;13.35;;;9.90;87.50;;;;;;2080703;28;20511;-72
2021/04/11 01:31:56;;;;;;;22.92;14.52;;;9.90;87.50;;;;;;2073376;28;20033;-72
2021/04/11 01:32:58;;;;;;;19.98;14.15;;;9.90;87.40;;;;;;2080773;28;20029;-72
2021/04/11 01:33:59;;;;;;;18.38;13.80;;;9.90;87.30;;;;;;2072800;28;20053;-74
2021/04/11 01:35:04;;;;;;;18.15;13.25;;;9.90;87.30;;;;;;2064776;28;20195;-75
2021/04/11 01:36:08;;;;;;;16.27;12.57;;;9.90;87.40;;;;;;2064443;28;20027;-75
2021/04/11 01:37:12;;;;;;;18.60;13.45;;;9.90;87.50;;;;;;2073092;28;20568;-73
2021/04/11 01:38:14;;;;;;;17.45;12.77;;;9.90;87.40;;;;;;2081003;28;20099;-71
2021/04/11 01:39:19;;;;;;;19.23;12.98;;;9.90;87.30;;;;;;2080817;28;20125;-72
2021/04/11 01:40:38;;;;;;;22.00;13.63;;;9.90;87.30;;;;;;2065142;28;20033;-72
2021/04/11 01:41:42;;;;;;;19.60;13.38;;;9.90;87.20;;;;;;2074905;28;20029;-72
2021/04/11 01:42:44;;;;;;;20.67;13.43;;;9.90;87.20;;;;;;2072587;28;20037;-73
2021/04/11 01:43:45;;;;;;;22.30;14.00;;;9.90;87.20;;;;;;2064700;28;20097;-72
2021/04/11 01:44:48;;;;;;;18.98;13.57;;;9.90;87.20;;;;;;2072665;28;20030;-73
2021/04/11 01:45:50;;;;;;;21.02;13.73;;;9.90;86.80;;;;;;2079911;28;20444;-73
2021/04/11 01:46:54;;;;;;;21.17;13.20;;;9.90;86.70;;;;;;2080381;28;20030;-74
2021/04/11 01:47:56;;;;;;;19.98;13.70;;;9.90;86.50;;;;;;2080686;28;20037;-73
2021/04/11 01:48:58;;;;;;;18.48;13.30;;;9.90;86.40;;;;;;2072618;28;20030;-73
2021/04/11 01:49:59;;;;;;;18.25;12.63;;;9.90;86.50;;;;;;2072740;28;20119;-74
2021/04/11 01:51:02;;;;;;;17.15;12.30;;;9.90;86.70;;;;;;2080624;28;20458;-74
2021/04/11 01:52:06;;;;;;;18.90;12.80;;;9.90;86.80;;;;;;2072596;28;20025;-73
2021/04/11 01:53:09;;;;;;;17.52;12.15;;;9.90;87.00;;;;;;2064590;28;20034;-74
2021/04/11 01:54:19;;;;;;;16.63;12.18;;;9.90;87.00;;;;;;2072597;28;20096;-73
2021/04/11 01:55:21;;;;;;;17.42;12.43;;;9.90;87.00;;;;;;2080724;28;20029;-74
2021/04/11 01:56:22;;;;;;;16.50;12.07;;;9.90;87.20;;;;;;2080026;28;20136;-73
2021/04/11 01:57:33;;;;;;;15.45;11.55;;;9.90;87.20;;;;;;2080695;28;20167;-73
2021/04/11 01:58:42;;;;;;;15.85;11.70;;;9.90;87.20;;;;;;2079380;28;20025;-73
2021/04/11 02:00:22;;;;;;;14.70;11.13;;;9.90;87.30;;;;;;2080884;28;20022;-73
2021/04/11 02:01:31;;;;;;;13.25;10.07;;;9.80;87.20;;;;;;2077152;28;20057;-73
2021/04/11 02:02:34;;;;;;;16.33;11.07;;;9.80;87.30;;;;;;2072744;28;20034;-73
2021/04/11 02:03:35;;;;;;;14.02;10.32;;;9.80;87.30;;;;;;2072377;28;20084;-73
2021/04/11 02:04:36;;;;;;;14.32;9.95;;;9.80;87.40;;;;;;2064280;28;20030;-72
2021/04/11 02:05:41;;;;;;;14.93;10.18;;;9.80;87.30;;;;;;2064223;28;20018;-72
2021/04/11 02:06:49;;;;;;;13.65;10.10;;;9.80;87.50;;;;;;2072244;28;20100;-72
2021/04/11 02:08:00;;;;;;;13.98;9.75;;;9.80;87.40;;;;;;2074513;28;20057;-73
2021/04/11 02:09:21;;;;;;;13.75;9.95;;;9.80;87.40;;;;;;2072410;28;20018;-72
2021/04/11 02:10:39;;;;;;;13.77;9.50;;;9.80;87.50;;;;;;2075228;28;20621;-72
2021/04/11 02:12:01;;;;;;;14.05;9.80;;;9.80;87.60;;;;;;2075473;28;20060;-72
2021/04/11 02:13:05;;;;;;;13.70;10.05;;;9.80;87.50;;;;;;2072210;28;20101;-72
2021/04/11 02:14:10;;;;;;;12.60;9.60;;;9.80;87.50;;;;;;2072372;28;20538;-72
2021/04/11 02:15:23;;;;;;;12.38;8.90;;;9.80;87.60;;;;;;2072250;28;20049;-72
2021/04/11 02:16:28;;;;;;;13.00;9.15;;;9.80;87.60;;;;;;2073290;28;20026;-72
2021/04/11 02:17:30;;;;;;;15.02;10.70;;;9.80;87.50;;;;;;2072378;28;20034;-72
2021/04/11 02:18:33;;;;;;;15.43;10.82;;;9.70;87.60;;;;;;2064184;28;20019;-72
2021/04/11 02:19:37;;;;;;;17.40;12.05;;;9.80;87.70;;;;;;2064089;28;20034;-73
2021/04/11 02:20:39;;;;;;;18.65;13.00;;;9.80;87.50;;;;;;2056816;28;20030;-73
2021/04/11 02:21:44;;;;;;;18.88;12.52;;;9.80;87.50;;;;;;2072348;28;20100;-73
2021/04/11 02:22:46;;;;;;;16.92;11.82;;;9.80;87.50;;;;;;2072119;28;20040;-73
2021/04/11 02:23:47;;;;;;;16.48;12.15;;;9.80;87.40;;;;;;2080328;28;21002;-73
2021/04/11 02:24:53;;;;;;;15.88;11.27;;;9.80;87.40;;;;;;2072301;28;20068;-73
2021/04/11 02:25:55;;;;;;;15.95;11.88;;;9.80;87.30;;;;;;2063318;28;20060;-72
2021/04/11 02:26:56;;;;;;;17.98;12.50;;;9.80;87.20;;;;;;2072287;28;20022;-73
2021/04/11 02:27:59;;;;;;;16.98;12.35;;;9.80;87.10;;;;;;2072090;28;20103;-72
2021/04/11 02:29:29;;;;;;;17.95;12.35;;;9.80;87.10;;;;;;2064478;28;20065;-72
2021/04/11 02:30:31;;;;;;;19.67;13.05;;;9.80;86.80;;;;;;2065298;28;20041;-72
2021/04/11 02:31:32;;;;;;;20.00;13.20;;;9.90;86.10;;;;;;2064053;28;20026;-72
2021/04/11 02:32:39;;;;;;;18.05;12.70;;;9.90;85.80;;;;;;2072806;28;20018;-73
2021/04/11 02:33:40;;;;;;;18.80;12.77;;;9.90;85.90;;;;;;2080118;28;20059;-73
2021/04/11 02:34:43;;;;;;;18.05;12.98;;;9.90;85.90;;;;;;2072076;28;20072;-73
2021/04/11 02:35:44;;;;;;;19.50;12.75;;;9.90;86.00;;;;;;2063338;28;20053;-72
2021/04/11 02:36:49;;;;;;;17.27;12.73;;;9.90;85.50;;;;;;2064158;28;20755;-73
2021/04/11 02:37:58;;;;;;;15.15;11.32;;;9.90;85.50;;;;;;2072329;28;20034;-73
2021/04/11 02:38:59;;;;;;;17.60;11.35;;;9.90;85.40;;;;;;2080363;28;20055;-73
2021/04/11 02:40:00;;;;;;;16.60;11.38;;;9.90;85.40;;;;;;2080346;28;20036;-73
2021/04/11 02:41:02;;;;;;;13.82;10.70;;;10.00;85.20;;;;;;2071984;28;20100;-72
2021/04/11 02:42:19;;;;;;;14.02;10.35;;;9.90;85.00;;;;;;2072222;28;20041;-72
2021/04/11 02:43:20;;;;;;;13.77;10.10;;;10.00;85.00;;;;;;2072760;28;20026;-72
2021/04/11 02:44:22;;;;;;;14.18;9.95;;;9.90;84.90;;;;;;2072726;28;20026;-72
2021/04/11 02:45:26;;;;;;;16.30;11.80;;;9.90;84.90;;;;;;2080097;28;20060;-73
2021/04/11 02:46:34;;;;;;;18.63;12.45;;;10.00;84.50;;;;;;2078246;28;20025;-73
2021/04/11 02:47:36;;;;;;;18.08;12.00;;;10.00;83.80;;;;;;2072520;28;20073;-72
2021/04/11 02:48:38;;;;;;;17.92;12.45;;;10.00;83.50;;;;;;2064544;28;20026;-72
2021/04/11 02:49:51;;;;;;;16.35;11.73;;;10.10;83.30;;;;;;2065932;28;20034;-72
2021/04/11 02:50:56;;;;;;;16.08;11.63;;;10.10;83.10;;;;;;2064911;28;20030;-73
2021/04/11 02:52:08;;;;;;;16.65;11.88;;;10.10;83.00;;;;;;2064208;28;20378;-72
2021/04/11 02:53:21;;;;;;;16.48;11.65;;;10.10;82.60;;;;;;2058900;28;20026;-72
2021/04/11 02:54:24;;;;;;;17.10;11.13;;;10.10;82.50;;;;;;2073812;28;20066;-73
2021/04/11 02:55:37;;;;;;;18.27;11.98;;;10.10;82.30;;;;;;2072070;28;20089;-73
2021/04/11 02:56:40;;;;;;;16.35;11.43;;;10.10;82.20;;;;;;2071913;28;20030;-73
2021/04/11 02:57:43;;;;;;;15.77;11.80;;;10.10;82.20;;;;;;2079631;28;20021;-73
2021/04/11 02:58:44;;;;;;;15.57;11.35;;;10.10;82.10;;;;;;2072187;28;20413;-73
2021/04/11 02:59:46;;;;;;;18.35;12.48;;;10.10;81.90;;;;;;2071945;28;20025;-73
2021/04/11 03:01:12;;;;;;;17.25;11.88;;;10.10;81.20;;;;;;2063941;28;20369;-76
2021/04/11 03:02:14;;;;;;;17.52;12.10;;;10.10;81.40;;;;;;2067204;28;20060;-73
2021/04/11 03:03:24;;;;;;;16.83;11.00;;;10.10;81.20;;;;;;2064979;28;20037;-73
2021/04/11 03:04:25;;;;;;;16.13;10.82;;;10.10;81.20;;;;;;2072020;28;20273;-73
2021/04/11 03:05:44;;;;;;;16.80;11.52;;;10.10;81.20;;;;;;2072693;28;20033;-73
2021/04/11 03:07:17;;;;;;;19.67;12.05;;;10.10;81.00;;;;;;2080189;28;20033;-72
2021/04/11 03:08:23;;;;;;;17.60;11.88;;;10.10;81.00;;;;;;2050879;28;20053;-72
2021/04/11 03:09:39;;;;;;;16.35;11.93;;;10.10;80.90;;;;;;2057198;28;20517;-73
2021/04/11 03:11:01;;;;;;;19.33;12.70;;;10.10;80.60;;;;;;2066507;28;20026;-73
2021/04/11 03:12:05;;;;;;;17.88;12.38;;;10.10;80.40;;;;;;2072132;28;20648;-74
2021/04/11 03:13:09;;;;;;;20.52;11.82;;;10.20;79.80;;;;;;2056646;28;20489;-72
2021/04/11 03:14:13;;;;;;;16.15;11.30;;;10.20;79.70;;;;;;2056769;28;20394;-72
2021/04/11 03:15:18;;;;;;;16.38;10.98;;;10.20;79.60;;;;;;2064579;28;20037;-72
2021/04/11 03:16:19;;;;;;;15.88;11.02;;;10.20;79.70;;;;;;2063270;28;20048;-72
2021/04/11 03:17:25;;;;;;;16.67;11.07;;;10.20;79.60;;;;;;2080153;28;20036;-72
2021/04/11 03:18:31;;;;;;;16.13;11.50;;;10.30;79.30;;;;;;2078887;28;20021;-72
2021/04/11 03:19:38;;;;;;;13.68;10.52;;;10.20;78.90;;;;;;2072567;28;20038;-71
2021/04/11 03:20:42;;;;;;;18.27;11.65;;;10.30;78.90;;;;;;2080131;28;20123;-73
2021/04/11 03:21:51;;;;;;;18.73;11.27;;;10.30;79.00;;;;;;2078748;28;20032;-72
2021/04/11 03:22:55;;;;;;;19.25;11.88;;;10.30;78.90;;;;;;2080015;28;20061;-72
2021/04/11 03:23:57;;;;;;;20.15;11.85;;;10.30;78.90;;;;;;2071889;28;20034;-72
2021/04/11 03:25:03;;;;;;;16.50;11.63;;;10.30;78.40;;;;;;2064496;28;20065;-71
2021/04/11 03:26:17;;;;;;;18.70;11.93;;;10.30;78.40;;;;;;2071360;28;20104;-72
2021/04/11 03:27:31;;;;;;;18.40;12.02;;;10.40;78.10;;;;;;2065564;28;20041;-72
2021/04/11 03:28:44;;;;;;;16.17;11.45;;;10.40;78.00;;;;;;2072051;28;20060;-73
2021/04/11 03:29:50;;;;;;;18.02;11.13;;;10.40;77.80;;;;;;2072044;28;20030;-71
2021/04/11 03:31:06;;;;;;;15.80;11.23;;;10.40;77.80;;;;;;2072791;28;20574;-73
2021/04/11 03:32:15;;;;;;;19.27;12.43;;;10.40;78.00;;;;;;2073484;28;20109;-71
2021/04/11 03:33:20;;;;;;;17.05;11.05;;;10.40;78.20;;;;;;2068887;28;20026;-72
2021/04/11 03:34:23;;;;;;;14.43;10.95;;;10.40;78.10;;;;;;2068833;28;20023;-71
2021/04/11 03:35:28;;;;;;;18.05;11.23;;;10.40;78.20;;;;;;2078172;28;20045;-71
2021/04/11 03:36:31;;;;;;;14.55;10.80;;;10.40;78.00;;;;;;2083202;28;20033;-72
2021/04/11 03:37:34;;;;;;;17.85;11.32;;;10.40;78.00;;;;;;2067862;28;20022;-72
2021/04/11 03:38:37;;;;;;;17.10;11.25;;;10.30;78.00;;;;;;2064093;28;20473;-72
2021/04/11 03:39:39;;;;;;;14.88;10.85;;;10.40;78.00;;;;;;2063684;28;20069;-72
2021/04/11 03:40:42;;;;;;;15.07;10.40;;;10.30;77.90;;;;;;2072099;28;20120;-72
2021/04/11 03:41:47;;;;;;;14.70;10.80;;;10.40;77.80;;;;;;2079210;28;20021;-72
2021/04/11 03:42:52;;;;;;;17.17;11.57;;;10.40;77.70;;;;;;2079776;28;20032;-72
2021/04/11 03:43:59;;;;;;;17.55;11.30;;;10.40;77.50;;;;;;2079409;28;20044;-72
2021/04/11 03:45:09;;;;;;;16.35;11.57;;;10.40;77.20;;;;;;2080012;28;20021;-72
2021/04/11 03:46:30;;;;;;;17.27;11.30;;;10.40;77.20;;;;;;2079010;28;20025;-72
2021/04/11 03:47:52;;;;;;;15.43;11.02;;;10.40;77.20;;;;;;2071718;28;20038;-72
2021/04/11 03:49:32;;;;;;;17.02;11.50;;;10.40;77.40;;;;;;2074602;28;20033;-72
2021/04/11 03:50:39;;;;;;;15.65;10.90;;;10.40;77.30;;;;;;2047152;28;20063;-72
2021/04/11 03:51:48;;;;;;;16.08;11.38;;;10.30;77.50;;;;;;2069488;28;20083;-72
2021/04/11 03:53:04;;;;;;;14.98;11.50;;;10.40;77.80;;;;;;2079820;28;20049;-73
2021/04/11 03:54:19;;;;;;;18.25;12.50;;;10.40;77.20;;;;;;2071624;28;20059;-72
2021/04/11 03:55:26;;;;;;;19.05;12.70;;;10.40;76.90;;;;;;2073233;28;20056;-72
2021/04/11 03:56:42;;;;;;;19.80;11.82;;;10.40;76.90;;;;;;2070835;28;20026;-71
2021/04/11 03:57:49;;;;;;;18.30;12.10;;;10.40;76.70;;;;;;2064790;28;20031;-72
2021/04/11 03:58:56;;;;;;;15.27;11.27;;;10.40;76.40;;;;;;2064478;28;20023;-72
2021/04/11 04:00:13;;;;;;;19.23;12.30;;;10.40;76.40;;;;;;2079812;28;20029;-72
2021/04/11 04:01:29;;;;;;;19.58;12.57;;;10.40;76.50;;;;;;2077443;28;20025;-73
2021/04/11 04:02:36;;;;;;;21.20;13.00;;;10.40;76.30;;;;;;2072307;28;20113;-72
2021/04/11 04:03:37;;;;;;;23.77;13.07;;;10.50;76.20;;;;;;2079705;28;20064;-72
2021/04/11 04:04:40;;;;;;;20.33;13.38;;;10.40;76.10;;;;;;2079844;28;20033;-72
2021/04/11 04:05:43;;;;;;;17.90;12.57;;;10.40;76.10;;;;;;2071702;28;20113;-72
2021/04/11 04:07:08;;;;;;;18.30;11.85;;;10.40;76.10;;;;;;2073337;28;20026;-72
2021/04/11 04:08:10;;;;;;;16.48;11.32;;;10.40;76.20;;;;;;2072397;28;20045;-72
2021/04/11 04:09:12;;;;;;;18.17;11.93;;;10.40;76.30;;;;;;2064116;28;20029;-72
2021/04/11 04:10:18;;;;;;;18.73;12.43;;;10.40;76.30;;;;;;2064133;28;20136;-72
2021/04/11 04:11:45;;;;;;;16.80;11.98;;;10.40;76.40;;;;;;2064984;28;20485;-74
2021/04/11 04:13:01;;;;;;;18.00;11.65;;;10.30;76.10;;;;;;2073600;28;20046;-73
2021/04/11 04:14:33;;;;;;;17.13;11.40;;;10.30;76.10;;;;;;2073839;28;20018;-73
2021/04/11 04:16:13;;;;;;;18.92;12.20;;;10.30;76.30;;;;;;2077471;28;20028;-73
2021/04/11 04:17:56;;;;;;;15.90;11.10;;;10.20;76.40;;;;;;2041882;28;20071;-73
2021/04/11 04:19:06;;;;;;;;;;;10.10;77.00;;;;;;2068665;28;20022;-73
2021/04/11 04:20:13;;;;;;;16.38;11.43;;;10.10;77.00;;;;;;2071904;28;19948;-73
2021/04/11 04:22:07;;;;;;;20.17;11.85;;;10.10;77.40;;;;;;2072381;28;20034;-72
2021/04/11 04:23:28;;;;;;;21.13;12.80;;;10.00;77.30;;;;;;2049637;28;20127;-73
2021/04/11 04:24:38;;;;;;;17.33;11.75;;;10.10;76.90;;;;;;2064394;28;20022;-72
2021/04/11 04:26:09;;;;;;;17.60;11.68;;;10.10;76.50;;;;;;2072791;28;20080;-72
2021/04/11 04:27:37;;;;;;;19.52;11.80;;;10.10;76.40;;;;;;2075621;28;20069;-72
2021/04/11 04:28:54;;;;;;;19.00;11.75;;;10.10;76.10;;;;;;2079594;28;20033;-72
2021/04/11 04:30:21;;;;;;;17.85;11.52;;;10.20;76.60;;;;;;2080070;28;20029;-72
2021/04/11 04:31:50;;;;;;;18.23;11.38;;;10.20;75.60;;;;;;2075129;28;20097;-73
2021/04/11 04:33:25;;;;;;;19.75;12.10;;;10.20;75.90;;;;;;2071683;28;20074;-73
2021/04/11 04:34:49;;;;;;;18.50;11.60;;;10.10;76.20;;;;;;2068689;28;20623;-73
2021/04/11 04:36:12;;;;;;;17.52;11.35;;;10.10;76.10;;;;;;2064818;28;20565;-72
2021/04/11 04:37:24;;;;;;;16.27;11.30;;;10.10;76.00;;;;;;2071869;28;20025;-71
2021/04/11 04:38:48;;;;;;;18.10;11.68;;;10.10;76.00;;;;;;2071589;28;20022;-71
2021/04/11 04:40:08;;;;;;;18.23;11.35;;;10.10;75.80;;;;;;2071822;28;20028;-71
2021/04/11 04:41:34;;;;;;;18.40;11.23;;;10.10;76.00;;;;;;2071507;28;20041;-71
2021/04/11 04:42:43;;;;;;;16.85;11.15;;;10.10;76.20;;;;;;2074683;28;20029;-72
2021/04/11 04:44:03;;;;;;;16.52;11.07;;;10.00;76.10;;;;;;2071406;28;20481;-72
2021/04/11 04:45:19;;;;;;;15.88;11.30;;;10.00;76.10;;;;;;2075266;28;20028;-72
2021/04/11 04:46:54;;;;;;;17.65;11.82;;;10.00;76.60;;;;;;2077031;28;20053;-72
2021/04/11 04:48:26;;;;;;;17.52;11.38;;;10.00;76.80;;;;;;2072245;28;20493;-71
2021/04/11 04:49:43;;;;;;;19.13;11.93;;;10.00;76.80;;;;;;2071609;28;20034;-72
2021/04/11 04:50:58;;;;;;;17.58;11.00;;;9.90;76.50;;;;;;2065475;28;20091;-72
2021/04/11 04:52:05;;;;;;;17.80;11.02;;;9.90;76.30;;;;;;2071988;28;20101;-71
2021/04/11 04:53:31;;;;;;;16.77;11.38;;;10.00;76.60;;;;;;2079817;28;20025;-72
2021/04/11 04:54:44;;;;;;;19.52;10.93;;;10.00;76.00;;;;;;2076041;28;20038;-72
2021/04/11 04:55:50;;;;;;;18.77;12.10;;;10.10;75.70;;;;;;2063932;28;20026;-72
2021/04/11 04:57:14;;;;;;;16.40;11.35;;;10.10;75.50;;;;;;2072197;28;20034;-71
2021/04/11 04:58:27;;;;;;;20.63;12.15;;;10.20;75.20;;;;;;2076612;28;20072;-72
2021/04/11 04:59:36;;;;;;;17.50;12.20;;;10.20;75.70;;;;;;2071459;28;20125;-71
2021/04/11 05:00:43;;;;;;;18.77;12.88;;;10.20;74.90;;;;;;2064530;28;20065;-72
2021/04/11 05:02:03;;;;;;;19.40;12.48;;;10.20;74.70;;;;;;2063415;28;20504;-72
2021/04/11 05:03:15;;;;;;;17.85;11.15;;;10.30;74.20;;;;;;2061128;28;20126;-72
2021/04/11 05:04:27;;;;;;;15.90;10.98;;;10.40;73.70;;;;;;2064318;28;20033;-72
2021/04/11 05:05:47;;;;;;;17.33;10.75;;;10.40;73.60;;;;;;2071431;28;20049;-72
2021/04/11 05:06:54;;;;;;;20.80;11.85;;;10.40;73.50;;;;;;2071873;28;20656;-71
2021/04/11 05:08:13;;;;;;;17.92;10.90;;;10.50;72.80;;;;;;2079624;28;20538;-74
2021/04/11 05:09:20;;;;;;;20.25;11.40;;;10.50;72.60;;;;;;2070545;28;20022;-72
2021/04/11 05:10:47;;;;;;;14.18;10.55;;;10.50;72.40;;;;;;2073201;28;20036;-73
2021/04/11 05:12:08;;;;;;;18.63;12.20;;;10.60;72.20;;;;;;2081148;28;20133;-72
2021/04/11 05:13:19;;;;;;;16.30;11.27;;;10.60;72.00;;;;;;2078309;28;20118;-71
2021/04/11 05:14:39;;;;;;;16.50;10.48;;;10.80;72.10;;;;;;2067349;28;20037;-72
2021/04/11 05:15:46;;;;;;;18.08;10.50;;;11.00;71.20;;;;;;2073939;28;20034;-72
2021/04/11 05:17:19;;;;;;;17.02;10.30;;;11.20;70.10;;;;;;2079626;28;20022;-73
2021/04/11 05:18:26;;;;;;;17.88;11.77;;;11.40;69.20;;;;;;2032518;29;20059;-72
2021/04/11 05:19:44;;;;;;;16.73;11.52;;;11.80;66.90;;;;;;2059329;28;20031;-72
2021/04/11 05:21:01;;;;;;;14.73;10.75;;;12.10;66.40;;;;;;2062531;28;20072;-73
2021/04/11 05:22:19;;;;;;;14.90;10.38;;;12.40;65.30;;;;;;2065669;28;20024;-72
2021/04/11 05:23:27;;;;;;;14.80;9.60;;;12.60;63.90;;;;;;2058426;28;20035;-72
2021/04/11 05:24:44;;;;;;;15.68;9.88;;;12.90;63.30;;;;;;2058979;28;20606;-73
2021/04/11 05:25:58;;;;;;;13.00;9.98;;;13.10;61.40;;;;;;2065897;28;20034;-72
2021/04/11 05:27:03;;;;;;;14.50;9.77;;;13.20;61.10;;;;;;2072982;28;20092;-73
2021/04/11 05:28:28;;;;;;;12.43;9.30;;;13.30;59.90;;;;;;2080774;28;20034;-72
2021/04/11 05:29:40;;;;;;;15.30;10.13;;;13.20;59.70;;;;;;2072753;28;20411;-72
2021/04/11 05:30:46;;;;;;;15.43;9.90;;;13.30;59.40;;;;;;2073005;28;20034;-71
2021/04/11 05:31:48;;;;;;;15.68;9.50;;;13.30;59.40;;;;;;2080932;28;20133;-72
2021/04/11 05:32:50;;;;;;;13.98;9.43;;;13.40;59.60;;;;;;2080756;28;20037;-71
2021/04/11 05:33:53;;;;;;;20.83;13.23;;;13.40;59.40;;;;;;2072769;28;20425;-72
2021/04/11 05:34:57;;;;;;;22.33;15.77;;;13.50;59.00;;;;;;2072866;28;20024;-72
2021/04/11 05:36:07;;;;;;;15.48;10.60;;;13.50;58.60;;;;;;2072393;28;20032;-72
2021/04/11 05:37:27;;;;;;;16.00;10.00;;;13.40;58.50;;;;;;2080941;28;20026;-72
2021/04/11 05:38:37;;;;;;;12.98;9.23;;;13.30;59.10;;;;;;2078370;28;20076;-72
2021/04/11 05:39:53;;;;;;;14.60;9.45;;;13.10;60.10;;;;;;2072895;28;20042;-72
2021/04/11 05:41:06;;;;;;;16.27;10.30;;;12.80;59.90;;;;;;2080925;28;20676;-73
2021/04/11 05:42:28;;;;;;;17.55;10.05;;;12.50;60.90;;;;;;2079401;28;20116;-73
2021/04/11 05:43:47;;;;;;;12.70;9.55;;;12.30;61.90;;;;;;2073396;28;20099;-72
2021/04/11 05:44:54;;;;;;;15.07;9.15;;;12.10;62.90;;;;;;2072655;28;20088;-72
2021/04/11 05:46:10;;;;;;;13.88;9.23;;;12.00;63.40;;;;;;2071829;28;20076;-72
2021/04/11 05:47:43;;;;;;;17.13;9.70;;;11.90;63.50;;;;;;2080878;28;20567;-73
2021/04/11 05:48:57;;;;;;;12.30;8.88;;;11.80;63.50;;;;;;2072777;28;20041;-71
2021/04/11 05:50:21;;;;;;;12.20;9.05;;;11.70;64.20;;;;;;2072724;28;20497;-73
2021/04/11 05:51:38;;;;;;;15.32;9.23;;;11.70;64.50;;;;;;2073225;28;20034;-72
2021/04/11 05:52:46;;;;;;;15.85;9.23;;;11.60;64.10;;;;;;2073187;28;20038;-72